Time;durP1;ratioP1;P1;durP2;ratioP2;P2;SDS_P1;SDS_P2;PMS_P1;PMS_P2;Temp;Humidity;BMP_temperature;BMP_pressure;BME280_temperature;BME280_humidity;BME280_pressure;Samples;Min_cycle;Max_cycle;Signal;HPM_P1;HPM_P2
2023/06/12 00:00:47;;;;;;;8.18;6.13;;;;;;;19.39;73.61;100923.72;4953041;29;20062;-47
2023/06/12 00:03:15;;;;;;;7.63;5.95;;;;;;;19.35;73.81;100922.88;4957548;28;20055;-47
2023/06/12 00:05:46;;;;;;;6.60;5.43;;;;;;;19.35;73.92;100917.28;4960970;28;20130;-45
2023/06/12 00:08:17;;;;;;;9.93;6.97;;;;;;;19.32;73.91;100904.03;4951784;29;20134;-46
2023/06/12 00:10:45;;;;;;;10.40;6.55;;;;;;;19.27;74.08;100910.81;4953785;29;20055;-45
2023/06/12 00:13:14;;;;;;;8.73;5.90;;;;;;;19.23;74.67;100898.81;4954573;29;20087;-45
2023/06/12 00:15:41;;;;;;;9.18;5.72;;;;;;;19.26;74.60;100909.25;4954675;29;20040;-45
2023/06/12 00:18:11;;;;;;;8.68;5.85;;;;;;;19.28;74.12;100900.41;4937232;29;20086;-46
2023/06/12 00:20:38;;;;;;;8.75;5.82;;;;;;;19.28;73.94;100904.03;4953731;29;20121;-45
2023/06/12 00:23:06;;;;;;;10.38;6.97;;;;;;;19.29;74.04;100907.63;4952372;29;20043;-45
2023/06/12 00:25:32;;;;;;;10.10;6.35;;;;;;;19.26;74.48;100900.81;4954527;29;20481;-45
2023/06/12 00:27:59;;;;;;;9.95;6.25;;;;;;;19.28;74.66;100897.59;4954497;29;20047;-47
2023/06/12 00:30:27;;;;;;;11.10;5.75;;;;;;;19.31;74.46;100900.41;4954181;29;20106;-45
2023/06/12 00:32:54;;;;;;;8.48;5.97;;;;;;;19.32;74.45;100901.22;4954677;29;20062;-45
2023/06/12 00:35:21;;;;;;;9.98;5.85;;;;;;;19.32;74.73;100896.41;4954055;29;20442;-45
2023/06/12 00:37:50;;;;;;;7.63;5.85;;;;;;;19.32;74.75;100904.03;4953008;29;20062;-45
2023/06/12 00:40:18;;;;;;;7.28;5.43;;;;;;;19.31;74.92;100889.19;4936387;29;20058;-48
2023/06/12 00:42:47;;;;;;;8.43;6.03;;;;;;;19.29;75.34;100899.22;4936562;29;20075;-46
2023/06/12 00:45:15;;;;;;;7.72;5.35;;;;;;;19.34;74.92;100898.81;4953469;29;20461;-45
2023/06/12 00:47:46;;;;;;;9.23;5.70;;;;;;;19.37;75.30;100901.66;4953917;29;20050;-45
2023/06/12 00:50:13;;;;;;;9.07;5.80;;;;;;;19.37;75.00;100892.41;4951874;29;20677;-45
2023/06/12 00:52:47;;;;;;;6.95;4.78;;;;;;;19.38;74.96;100888.41;4953385;28;20055;-45
2023/06/12 00:55:14;;;;;;;7.18;5.55;;;;;;;19.40;74.89;100895.25;4942142;29;20090;-46
2023/06/12 00:57:47;;;;;;;8.05;4.70;;;;;;;19.45;74.67;100899.66;4954036;29;20110;-50
2023/06/12 01:00:17;;;;;;;8.20;4.88;;;;;;;19.45;74.75;100894.03;4953912;28;20047;-45
2023/06/12 01:03:06;;;;;;;6.18;5.22;;;;;;;19.46;74.90;100901.25;4946895;29;20046;-45
2023/06/12 01:05:37;;;;;;;7.35;5.22;;;;;;;19.45;75.08;100902.47;4951093;29;20043;-45
2023/06/12 01:08:23;;;;;;;5.70;4.55;;;;;;;19.45;74.88;100894.03;4953079;28;20102;-45
2023/06/12 01:10:57;;;;;;;7.78;4.40;;;;;;;19.44;75.40;100898.03;4936484;29;20039;-45
2023/06/12 01:13:24;;;;;;;6.18;4.25;;;;;;;19.48;75.22;100886.81;4953259;28;20102;-45
2023/06/12 01:15:51;;;;;;;7.35;4.13;;;;;;;19.47;74.80;100897.22;4953808;29;20058;-47
2023/06/12 01:18:20;;;;;;;4.95;3.92;;;;;;;19.46;74.84;100900.47;4954128;29;20050;-45
2023/06/12 01:20:53;;;;;;;4.47;3.90;;;;;;;19.47;75.09;100897.22;4952349;28;20061;-45
2023/06/12 01:23:36;;;;;;;8.03;4.90;;;;;;;19.48;75.13;100903.66;4952933;29;20098;-47
2023/06/12 01:26:38;;;;;;;6.90;5.38;;;;;;;19.45;74.98;100908.06;4942193;29;20297;-48
2023/06/12 01:29:27;;;;;;;6.80;5.60;;;;;;;19.40;75.27;100903.66;4953351;29;20094;-46
2023/06/12 01:32:01;;;;;;;8.40;4.80;;;;;;;19.39;74.99;100906.88;4951310;29;20145;-45
2023/06/12 01:34:57;;;;;;;7.32;4.57;;;;;;;19.43;75.02;100907.69;4953244;29;20061;-47
2023/06/12 01:37:32;;;;;;;8.18;5.22;;;;;;;19.44;74.90;100904.47;4942313;28;20055;-45
2023/06/12 01:40:04;;;;;;;10.30;6.50;;;;;;;19.37;74.85;100898.84;4953240;29;20737;-48
2023/06/12 01:42:31;;;;;;;7.25;5.75;;;;;;;19.35;75.08;100900.44;4953453;29;20043;-45
2023/06/12 01:44:58;;;;;;;9.68;6.72;;;;;;;19.33;75.51;100895.19;4953428;29;20071;-45
2023/06/12 01:47:25;;;;;;;7.68;6.20;;;;;;;19.30;75.16;100893.19;4952366;29;20043;-46
2023/06/12 01:49:51;;;;;;;10.30;6.97;;;;;;;19.28;75.53;100891.97;4952163;28;20047;-45
2023/06/12 01:52:19;;;;;;;6.30;4.85;;;;;;;19.27;75.42;100881.97;4947301;29;20039;-50
2023/06/12 01:54:48;;;;;;;8.73;6.03;;;;;;;19.29;75.51;100876.75;4951581;29;20062;-46
2023/06/12 01:57:19;;;;;;;7.63;5.63;;;;;;;19.32;75.54;100881.56;4953229;29;20040;-46
2023/06/12 01:59:48;;;;;;;7.07;4.80;;;;;;;19.33;75.37;100886.78;4952812;29;20043;-48
2023/06/12 02:02:17;;;;;;;10.27;5.63;;;;;;;19.35;75.33;100883.59;4950925;29;20043;-45
2023/06/12 02:04:44;;;;;;;8.32;5.75;;;;;;;19.36;75.49;100897.22;4952189;29;20047;-46
2023/06/12 02:07:12;;;;;;;8.68;6.07;;;;;;;19.35;75.55;100892.78;4952910;29;20051;-46
2023/06/12 02:09:39;;;;;;;11.00;6.88;;;;;;;19.31;75.40;100889.19;4951943;29;20098;-46
2023/06/12 02:12:07;;;;;;;9.10;6.28;;;;;;;19.25;75.63;100884.34;4952787;29;20087;-49
2023/06/12 02:14:34;;;;;;;7.85;6.32;;;;;;;19.19;75.92;100881.19;4952986;29;20062;-46
2023/06/12 02:17:04;;;;;;;9.98;6.10;;;;;;;19.14;75.67;100869.53;4952557;29;20489;-45
2023/06/12 02:19:32;;;;;;;10.25;6.38;;;;;;;19.09;75.98;100876.34;4951395;28;20079;-46
2023/06/12 02:21:59;;;;;;;10.13;6.70;;;;;;;19.00;76.29;100872.31;4952233;29;20409;-45
2023/06/12 02:24:29;;;;;;;8.05;6.10;;;;;;;18.93;76.59;100880.75;4952978;29;20589;-46
2023/06/12 02:26:56;;;;;;;9.18;5.88;;;;;;;18.89;76.78;100877.91;4951784;29;20051;-45
2023/06/12 02:29:24;;;;;;;7.80;5.85;;;;;;;18.89;76.54;100877.91;4950704;29;20047;-46
2023/06/12 02:31:51;;;;;;;7.28;5.47;;;;;;;18.85;76.76;100882.72;4952489;29;20055;-46
2023/06/12 02:34:18;;;;;;;10.88;5.78;;;;;;;18.83;76.94;100879.50;4951730;29;20134;-46
2023/06/12 02:36:46;;;;;;;9.27;5.57;;;;;;;18.82;76.91;100878.69;4952698;29;20047;-45
2023/06/12 02:39:14;;;;;;;8.90;5.88;;;;;;;18.78;77.13;100877.91;4952703;29;20047;-45
2023/06/12 02:41:42;;;;;;;7.45;4.93;;;;;;;18.75;77.48;100878.69;4953056;29;20043;-45
2023/06/12 02:44:09;;;;;;;8.18;5.78;;;;;;;18.76;77.42;100874.69;4934104;29;20410;-45
2023/06/12 02:46:59;;;;;;;7.43;4.95;;;;;;;18.75;77.46;100873.09;4949553;28;20054;-45
2023/06/12 02:49:28;;;;;;;7.45;5.15;;;;;;;18.76;77.67;100866.28;4917553;29;20134;-46
2023/06/12 02:51:56;;;;;;;6.70;4.65;;;;;;;18.80;77.34;100861.47;4950276;28;20054;-46
2023/06/12 02:54:25;;;;;;;8.82;5.60;;;;;;;18.84;77.64;100858.69;4949731;28;20058;-45
2023/06/12 02:56:52;;;;;;;5.97;4.53;;;;;;;18.88;77.54;100864.31;4951062;29;20054;-46
2023/06/12 02:59:22;;;;;;;5.30;4.78;;;;;;;18.87;77.60;100852.28;4950128;29;20098;-45
2023/06/12 03:01:49;;;;;;;6.07;4.78;;;;;;;18.85;77.40;100861.06;4953777;23;20059;-46
2023/06/12 03:04:22;;;;;;;5.03;4.07;;;;;;;18.85;77.48;100847.06;4922496;29;20442;-46
2023/06/12 03:06:53;;;;;;;8.40;4.45;;;;;;;18.89;77.82;100843.44;4926973;29;20053;-48
2023/06/12 03:09:23;;;;;;;6.00;4.05;;;;;;;18.93;77.51;100849.88;4932493;29;20067;-49
2023/06/12 03:11:52;;;;;;;;;;;;;;;18.93;77.69;100849.88;4914611;29;20509;-48
2023/06/12 03:14:21;;;;;;;5.70;3.20;;;;;;;18.94;77.19;100854.28;4922518;29;19923;-47
2023/06/12 03:16:48;;;;;;;5.75;3.08;;;;;;;18.96;77.54;100851.88;4926541;29;20078;-46
2023/06/12 03:19:15;;;;;;;5.20;3.20;;;;;;;19.00;77.77;100849.88;4917085;29;20441;-46
2023/06/12 03:21:43;;;;;;;8.88;3.25;;;;;;;18.96;77.78;100849.06;4914655;29;20052;-45
2023/06/12 03:24:10;;;;;;;5.32;3.33;;;;;;;18.91;78.26;100853.06;4923910;29;20046;-45
2023/06/12 03:26:38;;;;;;;4.97;2.83;;;;;;;18.85;78.59;100855.47;4932108;29;20493;-46
2023/06/12 03:29:05;;;;;;;3.00;2.70;;;;;;;18.89;78.89;100849.88;4919142;29;20074;-45
2023/06/12 03:31:32;;;;;;;4.43;2.95;;;;;;;18.91;78.61;100855.06;4915122;29;20068;-46
2023/06/12 03:34:00;;;;;;;3.47;2.88;;;;;;;18.89;79.10;100860.28;4919627;29;20689;-46
2023/06/12 03:36:33;;;;;;;5.45;3.60;;;;;;;18.88;79.37;100864.31;4899999;29;20048;-47
2023/06/12 03:39:02;;;;;;;7.32;3.33;;;;;;;18.85;79.34;100860.28;4910629;29;20137;-48
2023/06/12 03:41:31;;;;;;;3.28;2.97;;;;;;;18.85;79.21;100860.28;4920821;29;20047;-46
2023/06/12 03:43:59;;;;;;;3.85;3.00;;;;;;;18.83;79.83;100857.06;4932503;29;20055;-50
2023/06/12 03:46:26;;;;;;;8.48;3.63;;;;;;;18.84;79.82;100867.91;4920124;29;20051;-47
2023/06/12 03:48:53;;;;;;;3.92;2.90;;;;;;;18.87;79.70;100863.50;4926818;29;20769;-49
2023/06/12 03:51:19;;;;;;;4.30;3.30;;;;;;;18.87;79.84;100857.09;4918726;29;20052;-45
2023/06/12 03:53:46;;;;;;;4.72;3.58;;;;;;;18.82;79.83;100861.88;4919876;29;20040;-45
2023/06/12 03:56:13;;;;;;;5.80;3.05;;;;;;;18.79;80.18;100862.69;4931712;29;20058;-46
2023/06/12 03:58:40;;;;;;;7.78;3.13;;;;;;;18.73;80.21;100861.47;4928851;29;20561;-47
2023/06/12 04:01:07;;;;;;;3.28;2.70;;;;;;;18.64;80.79;100865.84;4921841;29;20444;-47
2023/06/12 04:03:34;;;;;;;5.18;3.45;;;;;;;18.60;81.09;100868.66;4955131;29;20074;-45
2023/06/12 04:06:01;;;;;;;3.67;3.38;;;;;;;18.61;81.11;100866.66;4954381;29;20502;-46
2023/06/12 04:08:28;;;;;;;5.72;3.70;;;;;;;18.61;81.30;100869.47;4954244;29;20051;-48
2023/06/12 04:10:55;;;;;;;4.85;3.45;;;;;;;18.61;81.05;100877.88;4947571;29;20081;-46
2023/06/12 04:13:21;;;;;;;3.80;3.33;;;;;;;18.60;81.09;100877.06;4948364;29;20044;-46
2023/06/12 04:15:48;;;;;;;4.60;3.42;;;;;;;18.59;81.55;100880.25;4921017;29;20043;-46
2023/06/12 04:18:15;;;;;;;5.50;3.17;;;;;;;18.60;81.38;100887.47;4954555;29;20047;-45
2023/06/12 04:20:42;;;;;;;3.90;3.22;;;;;;;18.57;81.61;100883.47;4943270;29;20074;-44
2023/06/12 04:23:11;;;;;;;4.63;3.45;;;;;;;18.55;81.88;100885.06;4943667;29;20071;-44
2023/06/12 04:25:43;;;;;;;5.82;3.65;;;;;;;18.50;81.81;100886.25;4942020;29;20493;-45
2023/06/12 04:28:13;;;;;;;5.50;3.45;;;;;;;18.47;82.30;100886.19;4932912;29;20044;-45
2023/06/12 04:30:41;;;;;;;5.97;4.00;;;;;;;18.45;82.54;100889.41;4932145;29;21557;-46
2023/06/12 04:33:09;;;;;;;3.83;3.33;;;;;;;18.48;82.71;100897.03;4936248;29;20062;-45
2023/06/12 04:35:37;;;;;;;7.45;3.47;;;;;;;18.49;82.71;100897.84;4940683;29;20078;-45
2023/06/12 04:38:05;;;;;;;4.68;3.38;;;;;;;18.48;83.02;100902.63;4951995;29;20481;-45
2023/06/12 04:40:35;;;;;;;4.75;3.70;;;;;;;18.49;82.98;100898.66;4936374;29;20060;-46
2023/06/12 04:43:05;;;;;;;4.97;4.07;;;;;;;18.45;83.44;100892.22;4941949;29;20058;-45
2023/06/12 04:45:36;;;;;;;5.13;2.90;;;;;;;18.47;83.10;100901.06;4908269;29;20126;-44
2023/06/12 04:48:03;;;;;;;4.40;3.25;;;;;;;18.47;83.38;100897.41;4917913;29;20138;-44
2023/06/12 04:50:31;;;;;;;6.22;4.07;;;;;;;18.54;83.24;100895.47;4933161;29;20449;-44
2023/06/12 04:52:57;;;;;;;6.90;4.00;;;;;;;18.59;82.76;100900.69;4942175;29;20051;-45
2023/06/12 04:55:28;;;;;;;7.88;4.00;;;;;;;18.59;82.93;100902.69;4941541;29;20833;-45
2023/06/12 04:57:55;;;;;;;4.17;3.77;;;;;;;18.60;82.95;100893.09;4935134;29;20051;-47
2023/06/12 05:00:23;;;;;;;4.63;3.58;;;;;;;18.59;82.77;100897.88;4940473;29;20643;-45
2023/06/12 05:02:49;;;;;;;5.25;4.20;;;;;;;18.59;82.89;100900.69;4944512;29;20142;-45
2023/06/12 05:05:19;;;;;;;6.88;4.35;;;;;;;18.65;82.98;100901.91;4949283;29;20051;-46
2023/06/12 05:07:47;;;;;;;4.07;3.05;;;;;;;18.71;82.66;100905.94;4937383;29;20035;-46
2023/06/12 05:10:15;;;;;;;8.45;4.13;;;;;;;18.70;82.87;100907.13;4945961;29;20051;-45
2023/06/12 05:12:42;;;;;;;5.22;3.88;;;;;;;18.66;83.07;100900.72;4935703;29;20043;-46
2023/06/12 05:15:09;;;;;;;5.20;4.43;;;;;;;18.67;82.77;100904.31;4944205;29;20154;-45
2023/06/12 05:17:37;;;;;;;6.22;4.22;;;;;;;18.67;82.94;100904.31;4940882;29;20134;-45
2023/06/12 05:20:09;;;;;;;6.13;3.80;;;;;;;18.70;82.97;100909.13;4949418;29;20074;-47
2023/06/12 05:22:37;;;;;;;5.35;3.78;;;;;;;18.74;82.99;100916.34;4953393;29;20053;-44
2023/06/12 05:25:04;;;;;;;13.23;5.25;;;;;;;18.76;82.99;100913.16;4947050;28;20051;-45
2023/06/12 05:27:31;;;;;;;6.22;4.03;;;;;;;18.76;82.97;100913.16;4953411;29;20142;-44
2023/06/12 05:29:59;;;;;;;5.80;4.28;;;;;;;18.77;82.95;100914.78;4953535;29;20400;-49
2023/06/12 05:32:26;;;;;;;7.38;5.43;;;;;;;18.70;83.04;100914.75;4924098;29;20555;-45
2023/06/12 05:34:53;;;;;;;8.50;4.82;;;;;;;18.60;83.44;100910.72;4935409;29;20134;-45
2023/06/12 05:37:20;;;;;;;6.18;4.78;;;;;;;18.59;83.64;100911.91;4937494;29;20142;-45
2023/06/12 05:39:46;;;;;;;8.40;5.47;;;;;;;18.55;83.43;100907.50;4947446;29;20493;-46
2023/06/12 05:42:13;;;;;;;8.25;5.30;;;;;;;18.55;83.53;100908.28;4953413;29;20074;-46
2023/06/12 05:44:40;;;;;;;7.43;4.82;;;;;;;18.54;83.38;100905.88;4951678;29;20047;-45
2023/06/12 05:47:08;;;;;;;6.07;4.85;;;;;;;18.52;83.67;100920.31;4919478;29;20039;-46
2023/06/12 05:49:37;;;;;;;6.85;4.78;;;;;;;18.53;83.47;100907.09;4937114;29;20053;-46
2023/06/12 05:52:05;;;;;;;9.40;5.70;;;;;;;18.56;83.39;100915.50;4938445;29;20450;-47
2023/06/12 05:54:32;;;;;;;15.02;5.72;;;;;;;18.56;83.23;100926.72;4935900;29;20047;-45
2023/06/12 05:57:00;;;;;;;10.45;5.38;;;;;;;18.56;83.24;100921.09;4934872;29;20364;-45
2023/06/12 05:59:27;;;;;;;12.27;6.25;;;;;;;18.57;83.20;100927.50;4931560;29;20048;-45
2023/06/12 06:01:57;;;;;;;12.85;5.65;;;;;;;18.57;82.97;100925.53;4942211;29;20043;-45
2023/06/12 06:04:24;;;;;;;18.90;7.28;;;;;;;18.57;83.11;100927.50;4952621;29;20054;-45
2023/06/12 06:06:53;;;;;;;13.77;6.45;;;;;;;18.59;82.96;100931.53;4951776;29;20142;-45
2023/06/12 06:09:20;;;;;;;15.15;7.15;;;;;;;18.59;83.29;100919.50;4937998;29;20059;-45
2023/06/12 06:11:48;;;;;;;9.35;6.68;;;;;;;18.59;82.89;100923.13;4926609;29;20386;-46
2023/06/12 06:14:17;;;;;;;10.30;7.00;;;;;;;18.55;82.80;100929.91;4942587;29;20110;-45
2023/06/12 06:16:45;;;;;;;11.38;6.90;;;;;;;18.51;83.08;100929.91;4952899;29;20485;-47
2023/06/12 06:19:21;;;;;;;10.73;6.60;;;;;;;18.54;83.08;100931.91;4952708;29;20042;-45
2023/06/12 06:21:48;;;;;;;14.60;6.15;;;;;;;18.55;83.19;100935.53;4952699;29;20048;-45
2023/06/12 06:24:15;;;;;;;9.32;6.10;;;;;;;18.55;82.74;100929.91;4945953;29;20552;-45
2023/06/12 06:26:42;;;;;;;12.00;7.43;;;;;;;18.59;83.17;100939.13;4937664;29;20055;-45
2023/06/12 06:29:09;;;;;;;13.27;7.72;;;;;;;18.63;83.15;100945.56;4951978;29;20130;-45
2023/06/12 06:31:41;;;;;;;13.45;7.82;;;;;;;18.68;83.05;100945.19;4952853;29;20062;-45
2023/06/12 06:34:13;;;;;;;13.13;8.00;;;;;;;18.72;82.77;100946.81;4952623;29;20094;-47
2023/06/12 06:36:40;;;;;;;15.30;8.43;;;;;;;18.76;82.61;100953.25;4947118;28;20058;-45
2023/06/12 06:39:07;;;;;;;12.95;8.73;;;;;;;18.76;82.62;100944.81;4948398;29;20051;-45
2023/06/12 06:41:34;;;;;;;14.02;8.73;;;;;;;18.79;82.61;100946.84;4937942;29;20426;-45
2023/06/12 06:44:01;;;;;;;15.95;8.70;;;;;;;18.80;82.31;100956.84;4937167;29;20043;-45
2023/06/12 06:46:28;;;;;;;14.73;9.82;;;;;;;18.77;82.78;100954.81;4950902;29;20393;-45
2023/06/12 06:48:55;;;;;;;15.63;9.55;;;;;;;18.78;82.70;100950.84;4954849;29;20511;-45
2023/06/12 06:51:21;;;;;;;17.33;10.15;;;;;;;18.83;82.85;100958.06;4951201;29;20062;-45
2023/06/12 06:53:48;;;;;;;13.98;9.10;;;;;;;18.88;82.67;100954.88;4956387;29;20055;-44
2023/06/12 06:56:16;;;;;;;20.35;10.00;;;;;;;18.92;82.75;100952.06;4929232;29;20098;-44
2023/06/12 06:58:43;;;;;;;16.70;10.70;;;;;;;18.94;82.72;100963.69;4937092;29;20059;-44
2023/06/12 07:01:10;;;;;;;16.10;10.98;;;;;;;18.93;82.63;100967.72;4939172;29;20577;-44
2023/06/12 07:03:36;;;;;;;16.48;10.32;;;;;;;18.88;82.24;100960.47;4956217;29;20378;-44
2023/06/12 07:06:04;;;;;;;21.63;11.35;;;;;;;18.88;82.66;100959.69;4955899;29;20106;-44
2023/06/12 07:08:31;;;;;;;17.85;10.63;;;;;;;18.89;82.96;100969.69;4956118;29;20055;-46
2023/06/12 07:10:59;;;;;;;20.33;12.82;;;;;;;18.90;82.86;100969.31;4955640;29;20059;-45
2023/06/12 07:13:26;;;;;;;20.25;12.50;;;;;;;18.89;82.73;100975.31;4949141;29;20086;-44
2023/06/12 07:15:53;;;;;;;22.50;12.90;;;;;;;18.88;82.90;100965.31;4938916;29;20039;-46
2023/06/12 07:18:21;;;;;;;17.83;11.30;;;;;;;18.89;82.81;100966.91;4922814;29;20553;-44
2023/06/12 07:20:48;;;;;;;18.42;11.38;;;;;;;18.93;82.81;100978.94;4953090;29;20050;-46
2023/06/12 07:23:14;;;;;;;18.23;11.82;;;;;;;18.94;82.71;100969.31;4946365;29;20172;-45
2023/06/12 07:25:41;;;;;;;13.50;9.57;;;;;;;18.92;83.15;100971.72;4928512;29;20050;-45
2023/06/12 07:28:08;;;;;;;12.48;9.30;;;;;;;18.95;82.88;100965.31;4932215;29;20095;-45
2023/06/12 07:30:35;;;;;;;15.25;10.35;;;;;;;18.99;82.99;100975.34;4932541;29;20107;-49
2023/06/12 07:33:02;;;;;;;12.75;9.52;;;;;;;19.00;83.01;100978.97;4936044;29;20070;-45
2023/06/12 07:35:29;;;;;;;14.32;9.70;;;;;;;19.01;82.78;100980.56;4946919;29;20047;-45
2023/06/12 07:37:55;;;;;;;18.35;10.40;;;;;;;19.02;83.22;100979.34;4954697;29;20111;-45
2023/06/12 07:40:22;;;;;;;15.02;9.70;;;;;;;18.99;83.17;100988.56;4955080;29;20438;-44
2023/06/12 07:42:49;;;;;;;16.55;9.93;;;;;;;18.98;82.98;100992.59;4950394;29;20050;-45
2023/06/12 07:45:16;;;;;;;14.23;9.27;;;;;;;19.02;82.94;100993.38;4954191;29;20047;-47
2023/06/12 07:47:43;;;;;;;17.83;9.40;;;;;;;19.05;82.92;100987.78;4942371;29;20501;-46
2023/06/12 07:50:10;;;;;;;19.77;12.50;;;;;;;19.07;82.93;100987.38;4944771;29;20090;-46
2023/06/12 07:52:38;;;;;;;18.38;9.82;;;;;;;19.08;83.09;100989.81;4948038;29;20393;-47
2023/06/12 07:55:05;;;;;;;17.65;10.43;;;;;;;19.11;82.87;100997.44;4955123;29;20039;-45
2023/06/12 07:57:32;;;;;;;17.38;11.13;;;;;;;19.10;82.96;100995.00;4955280;29;20114;-46
2023/06/12 07:59:59;;;;;;;13.95;9.20;;;;;;;19.13;82.71;100997.84;4954958;29;20173;-45
2023/06/12 08:02:28;;;;;;;18.05;10.80;;;;;;;19.16;82.90;101005.47;4954745;29;20062;-48
2023/06/12 08:04:56;;;;;;;19.00;12.50;;;;;;;19.20;82.92;100997.03;4931007;29;20144;-45
2023/06/12 08:07:22;;;;;;;20.25;11.07;;;;;;;19.21;83.05;100995.84;4947235;29;20051;-45
2023/06/12 08:09:49;;;;;;;17.25;12.13;;;;;;;19.21;83.27;100990.25;4955355;29;20090;-45
2023/06/12 08:12:16;;;;;;;23.48;12.35;;;;;;;19.24;82.98;100995.06;4937514;29;20142;-45
2023/06/12 08:14:44;;;;;;;17.23;11.70;;;;;;;19.30;83.08;100993.47;4909727;29;20154;-45
2023/06/12 08:17:11;;;;;;;15.73;11.18;;;;;;;19.37;83.11;100994.31;4941334;29;20052;-46
2023/06/12 08:19:38;;;;;;;13.48;9.30;;;;;;;19.45;82.85;100995.13;4955092;29;20106;-45
2023/06/12 08:22:08;;;;;;;18.30;11.15;;;;;;;19.51;82.68;100996.34;4937918;29;20055;-47
2023/06/12 08:24:36;;;;;;;20.02;10.80;;;;;;;19.51;82.84;101001.16;4930786;29;20120;-47
2023/06/12 08:27:03;;;;;;;18.38;11.27;;;;;;;19.47;82.77;101000.31;4951491;29;20050;-48
2023/06/12 08:29:30;;;;;;;14.10;8.35;;;;;;;19.46;82.94;100996.72;4954570;29;20561;-45
2023/06/12 08:31:57;;;;;;;15.00;9.40;;;;;;;19.48;82.67;101008.38;4951191;29;20049;-45
2023/06/12 08:34:25;;;;;;;11.38;8.00;;;;;;;19.46;82.70;101002.31;4952218;29;20054;-46
2023/06/12 08:36:53;;;;;;;13.90;7.97;;;;;;;19.40;82.58;101004.75;4951900;29;20043;-46
2023/06/12 08:39:20;;;;;;;8.43;7.18;;;;;;;19.37;82.95;101010.31;4937018;29;20081;-45
2023/06/12 08:42:08;;;;;;;9.90;6.40;;;;;;;19.34;82.56;101005.50;4931174;29;20050;-46
2023/06/12 08:44:35;;;;;;;8.68;5.78;;;;;;;19.31;82.61;101003.47;4954143;29;20047;-50
2023/06/12 08:47:03;;;;;;;9.25;5.55;;;;;;;19.30;82.44;101001.91;4947907;29;20040;-44
2023/06/12 08:49:31;;;;;;;9.35;5.70;;;;;;;19.36;82.58;101005.91;4949220;29;20051;-45
2023/06/12 08:51:58;;;;;;;8.57;5.90;;;;;;;19.40;82.20;101001.13;4954282;29;20552;-45
2023/06/12 08:54:25;;;;;;;7.47;5.20;;;;;;;19.46;82.27;101013.56;4936787;29;20051;-44
2023/06/12 08:56:56;;;;;;;7.28;5.30;;;;;;;19.50;81.98;101005.97;4953943;29;20066;-47
2023/06/12 08:59:23;;;;;;;9.57;5.30;;;;;;;19.52;81.37;101011.97;4940922;28;20146;-46
2023/06/12 09:01:53;;;;;;;7.28;5.38;;;;;;;19.52;81.61;101011.97;4948853;29;20502;-45
2023/06/12 09:04:47;;;;;;;8.25;6.28;;;;;;;19.59;81.45;100999.97;4952558;29;20048;-46
2023/06/12 09:07:18;;;;;;;6.55;5.03;;;;;;;19.74;81.29;101010.00;4953721;29;20047;-45
2023/06/12 09:09:46;;;;;;;8.63;5.53;;;;;;;19.82;81.25;101003.16;4928658;29;20460;-45
2023/06/12 09:12:15;;;;;;;9.85;6.00;;;;;;;19.84;81.13;101000.75;4947596;29;20035;-45
2023/06/12 09:14:45;;;;;;;7.63;5.18;;;;;;;19.84;80.79;101007.19;4936156;29;20394;-45
2023/06/12 09:17:12;;;;;;;8.73;6.05;;;;;;;19.85;80.58;101003.19;4938986;29;20067;-46
2023/06/12 09:19:44;;;;;;;7.57;5.95;;;;;;;19.84;81.07;101001.56;4953372;29;20387;-49
2023/06/12 09:22:11;;;;;;;6.57;5.15;;;;;;;19.86;80.86;101004.75;4952994;29;20078;-45
2023/06/12 09:24:40;;;;;;;11.75;6.50;;;;;;;19.86;80.52;101004.75;4947057;29;20051;-45
2023/06/12 09:27:07;;;;;;;8.70;5.55;;;;;;;19.91;80.68;101007.16;4953325;29;20400;-46
2023/06/12 09:29:36;;;;;;;7.05;5.15;;;;;;;19.99;80.51;101007.97;4936379;29;20528;-46
2023/06/12 09:32:05;;;;;;;6.53;4.78;;;;;;;20.01;79.67;101006.34;4947913;29;20367;-49
2023/06/12 09:34:33;;;;;;;5.90;4.95;;;;;;;20.00;80.12;101001.94;4932777;29;20051;-45
2023/06/12 09:37:03;;;;;;;8.57;5.43;;;;;;;20.00;80.13;101007.56;4948695;29;20065;-45
2023/06/12 09:39:30;;;;;;;7.30;4.65;;;;;;;20.01;80.13;101003.53;4953280;29;20490;-45
2023/06/12 09:41:58;;;;;;;5.70;4.18;;;;;;;20.06;80.02;101007.97;4952858;29;20142;-46
2023/06/12 09:44:28;;;;;;;5.13;3.67;;;;;;;20.11;79.88;101007.56;4953568;29;20051;-47
2023/06/12 09:47:00;;;;;;;8.10;5.10;;;;;;;20.17;79.56;101014.38;4953644;29;20557;-47
2023/06/12 09:49:28;;;;;;;4.90;3.95;;;;;;;20.22;79.13;101004.72;4945224;29;20075;-45
2023/06/12 09:51:58;;;;;;;7.53;4.85;;;;;;;20.23;79.27;101015.56;4928169;29;20117;-44
2023/06/12 09:54:28;;;;;;;11.27;5.65;;;;;;;20.21;78.97;101003.94;4953095;29;20055;-46
2023/06/12 09:56:57;;;;;;;6.93;4.13;;;;;;;20.15;78.87;101010.38;4949341;29;20508;-45
2023/06/12 09:59:28;;;;;;;5.82;3.80;;;;;;;20.10;78.78;101011.56;4948534;29;20079;-47
2023/06/12 10:02:03;;;;;;;5.85;4.63;;;;;;;20.08;79.06;101011.19;4952844;29;20039;-45
2023/06/12 10:05:10;;;;;;;6.28;4.07;;;;;;;20.06;78.94;101005.16;4953227;29;20058;-44
2023/06/12 10:07:42;;;;;;;6.95;4.88;;;;;;;20.07;79.01;101000.34;4905596;29;20059;-45
2023/06/12 10:10:11;;;;;;;6.57;3.03;;;;;;;20.10;78.32;101003.13;4953040;29;20051;-45
2023/06/12 10:12:38;;;;;;;5.63;3.30;;;;;;;20.10;78.38;100996.69;4954846;28;20047;-44
2023/06/12 10:15:07;;;;;;;3.72;3.05;;;;;;;20.14;78.34;100997.53;4948285;29;20043;-44
2023/06/12 10:17:34;;;;;;;28.75;3.80;;;;;;;20.20;77.59;101001.53;4956861;29;20055;-44
2023/06/12 10:20:06;;;;;;;5.95;2.65;;;;;;;20.22;77.67;101002.72;4939629;29;20044;-46
2023/06/12 10:22:33;;;;;;;4.90;2.20;;;;;;;20.23;76.94;101000.69;4955111;29;20098;-44
2023/06/12 10:25:01;;;;;;;2.85;2.50;;;;;;;20.22;76.91;101005.53;4949489;29;20058;-45
2023/06/12 10:27:30;;;;;;;3.58;2.20;;;;;;;20.23;77.05;101006.31;4949177;29;20055;-46
2023/06/12 10:29:58;;;;;;;5.05;2.92;;;;;;;20.33;76.99;101005.56;4950399;29;20047;-45
2023/06/12 10:32:31;;;;;;;4.68;1.73;;;;;;;20.41;76.25;101012.75;4931817;29;20047;-44
2023/06/12 10:34:58;;;;;;;2.97;1.55;;;;;;;20.43;75.77;101010.34;4950752;29;20056;-44
2023/06/12 10:37:31;;;;;;;2.17;1.52;;;;;;;20.48;75.26;101007.91;4956582;29;20110;-47
2023/06/12 10:40:14;;;;;;;3.10;1.73;;;;;;;20.54;75.43;101017.53;4953942;29;20060;-44
2023/06/12 10:42:52;;;;;;;1.77;1.50;;;;;;;20.61;75.02;101025.16;4956349;29;20047;-44
2023/06/12 10:45:25;;;;;;;2.45;1.77;;;;;;;20.63;74.91;101015.09;4956291;29;20110;-45
2023/06/12 10:48:14;;;;;;;2.25;1.77;;;;;;;20.67;74.66;101015.09;4956194;29;20043;-45
2023/06/12 10:50:49;;;;;;;3.70;1.60;;;;;;;20.65;74.77;101017.53;4956529;29;20481;-44
2023/06/12 10:53:43;;;;;;;5.53;2.97;;;;;;;20.70;74.46;101014.28;4956457;29;20101;-46
2023/06/12 10:56:11;;;;;;;3.25;2.47;;;;;;;20.73;74.07;101009.84;4956096;29;20051;-44
2023/06/12 10:58:42;;;;;;;4.95;2.97;;;;;;;20.74;73.76;101009.44;4946108;29;20055;-45
2023/06/12 11:01:14;;;;;;;7.00;3.58;;;;;;;20.78;73.98;101013.06;4956083;29;20166;-45
2023/06/12 11:03:43;;;;;;;2.42;1.95;;;;;;;20.79;73.47;101011.00;4955792;29;20047;-45
2023/06/12 11:06:15;;;;;;;7.65;3.33;;;;;;;20.76;73.21;101004.19;4955691;29;20133;-46
2023/06/12 11:08:45;;;;;;;2.42;2.03;;;;;;;20.71;73.37;101013.06;4956062;29;20605;-44
2023/06/12 11:11:13;;;;;;;5.80;3.30;;;;;;;20.63;73.21;101008.66;4955980;29;20050;-45
2023/06/12 11:13:45;;;;;;;5.82;2.10;;;;;;;20.54;73.52;101011.13;4944043;29;20509;-44
2023/06/12 11:16:13;;;;;;;3.65;1.95;;;;;;;20.49;74.18;101014.34;4955339;29;20039;-44
2023/06/12 11:18:40;;;;;;;3.20;2.00;;;;;;;20.40;74.21;101002.72;4955844;29;20394;-49
2023/06/12 11:21:10;;;;;;;3.33;1.77;;;;;;;20.35;74.58;101012.38;4943575;29;20054;-44
2023/06/12 11:23:42;;;;;;;2.15;1.52;;;;;;;20.32;74.90;101010.38;4945607;29;20052;-45
2023/06/12 11:26:10;;;;;;;2.03;1.52;;;;;;;20.28;75.14;101011.59;4955584;29;20047;-44
2023/06/12 11:28:37;;;;;;;2.80;1.27;;;;;;;20.27;75.13;101012.78;4939873;29;20052;-46
2023/06/12 11:31:04;;;;;;;2.63;1.08;;;;;;;20.22;75.09;101010.34;4950568;29;20052;-44